createdAt,value
2022-08-18T00:02:06.510Z,45.33
2022-08-18T00:07:09.723Z,46.07
2022-08-18T00:12:13.867Z,46.19
2022-08-18T00:17:13.070Z,47.34
2022-08-18T00:22:16.208Z,46.14
2022-08-18T00:27:15.137Z,46.95
2022-08-18T00:32:15.672Z,45.99
2022-08-18T00:37:16.705Z,45.77
2022-08-18T00:42:27.628Z,45.32
2022-08-18T00:47:41.675Z,44.88
2022-08-18T00:52:43.585Z,45.09
2022-08-18T00:57:44.091Z,44.46
2022-08-18T01:02:46.422Z,44.29
2022-08-18T01:07:50.173Z,44.53
2022-08-18T01:12:51.973Z,44.38
2022-08-18T01:18:08.377Z,45.26
2022-08-18T01:23:14.410Z,44.87
2022-08-18T01:28:14.823Z,44.70
2022-08-18T01:33:13.914Z,44.64
2022-08-18T01:38:14.220Z,45.05
2022-08-18T01:43:13.206Z,45.88
2022-08-18T01:48:12.783Z,46.00
2022-08-18T01:53:13.502Z,46.15
2022-08-18T01:58:13.994Z,46.54
2022-08-18T02:03:16.040Z,46.48
2022-08-18T02:08:16.789Z,47.12
2022-08-18T02:13:15.788Z,46.60
2022-08-18T02:18:32.474Z,47.03
2022-08-18T02:23:40.728Z,47.38
2022-08-18T02:28:50.096Z,47.72
2022-08-18T02:33:52.226Z,48.63
2022-08-18T02:38:58.507Z,48.51
2022-08-18T02:44:00.142Z,48.74
2022-08-18T02:49:00.205Z,48.22
2022-08-18T02:54:00.990Z,49.42
2022-08-18T02:59:04.503Z,48.51
2022-08-18T03:04:04.174Z,49.31
2022-08-18T03:09:05.344Z,48.88
2022-08-18T03:14:05.777Z,48.55
2022-08-18T03:19:08.486Z,48.38
2022-08-18T03:24:10.682Z,48.47
2022-08-18T03:29:12.536Z,48.49
2022-08-18T03:34:11.811Z,48.15
2022-08-18T03:39:14.293Z,48.29
2022-08-18T03:44:14.587Z,48.32
2022-08-18T03:49:13.807Z,48.46
2022-08-18T03:54:16.603Z,48.75
2022-08-18T03:59:18.379Z,48.95
2022-08-18T04:04:19.616Z,48.72
2022-08-18T04:09:20.828Z,48.68
2022-08-18T04:14:24.320Z,49.08
2022-08-18T04:19:27.212Z,48.99
2022-08-18T04:24:31.927Z,49.35
2022-08-18T04:29:31.115Z,48.90
2022-08-18T04:34:30.203Z,49.83
2022-08-18T04:39:38.960Z,49.72
2022-08-18T04:44:46.269Z,49.48
2022-08-18T04:49:46.699Z,49.69
2022-08-18T04:54:48.006Z,49.86
2022-08-18T04:59:50.532Z,50.34
2022-08-18T05:04:50.952Z,50.26
2022-08-18T05:09:55.360Z,49.51
2022-08-18T05:14:57.436Z,50.00
2022-08-18T05:19:57.827Z,49.79
2022-08-18T05:24:59.085Z,50.69
2022-08-18T05:29:58.406Z,50.05
2022-08-18T05:34:57.469Z,50.33
2022-08-18T05:40:05.263Z,49.88
2022-08-18T05:45:10.501Z,48.83
2022-08-18T05:50:12.466Z,49.35
2022-08-18T05:55:36.208Z,50.19
2022-08-18T06:00:37.572Z,50.08
2022-08-18T06:05:38.747Z,48.95
2022-08-18T06:10:43.837Z,49.12
2022-08-18T06:15:50.112Z,49.08
2022-08-18T06:21:21.089Z,49.08
2022-08-18T06:26:32.289Z,50.06
2022-08-18T06:31:42.455Z,50.31
2022-08-18T06:36:51.490Z,49.64
2022-08-18T06:41:53.986Z,49.39
2022-08-18T06:47:00.393Z,48.55
2022-08-18T06:51:59.901Z,48.56
2022-08-18T06:57:01.992Z,48.64
2022-08-18T07:02:12.208Z,48.53
2022-08-18T07:07:18.979Z,48.41
2022-08-18T07:12:32.563Z,47.71
2022-08-18T07:17:43.302Z,47.67
2022-08-18T07:22:59.925Z,47.40
2022-08-18T07:28:03.058Z,46.75
2022-08-18T07:33:12.860Z,46.51
2022-08-18T07:43:52.417Z,45.63
2022-08-18T07:48:52.786Z,46.56
2022-08-18T07:53:59.524Z,45.70
2022-08-18T07:59:11.049Z,45.30
2022-08-18T08:04:25.933Z,44.39
2022-08-18T08:09:40.508Z,44.91
2022-08-18T08:14:46.148Z,44.48
2022-08-18T08:20:00.824Z,43.08
2022-08-18T08:25:17.663Z,41.15
2022-08-18T08:30:34.243Z,40.70
2022-08-18T08:35:49.597Z,41.21
2022-08-18T08:40:55.873Z,40.11
2022-08-18T08:46:08.499Z,39.51
2022-08-18T08:51:30.400Z,38.22
2022-08-18T08:56:34.771Z,38.20
2022-08-18T09:01:43.952Z,38.65
2022-08-18T09:06:55.210Z,38.53
2022-08-18T09:12:38.249Z,37.79
2022-08-18T09:17:57.221Z,35.71
2022-08-18T09:23:06.358Z,33.43
2022-08-18T09:28:13.284Z,31.98
2022-08-18T09:33:34.638Z,29.20
2022-08-18T09:38:56.075Z,30.17
2022-08-18T09:44:11.962Z,27.19
2022-08-18T09:50:37.346Z,25.17
2022-08-18T09:55:29.945Z,24.50
2022-08-18T10:00:33.436Z,23.20
2022-08-18T10:05:36.795Z,23.46
2022-08-18T10:11:01.051Z,23.19
2022-08-18T10:16:17.161Z,21.24
2022-08-18T10:21:22.845Z,22.46
2022-08-18T10:27:14.851Z,22.26
2022-08-18T10:32:36.694Z,21.98
2022-08-18T10:37:40.957Z,19.82
2022-08-18T10:42:46.936Z,19.98
2022-08-18T10:47:59.054Z,18.82
2022-08-18T10:58:42.272Z,18.00
2022-08-18T11:04:13.761Z,17.91
2022-08-18T11:09:23.368Z,18.71
2022-08-18T11:14:50.084Z,17.29
2022-08-18T11:19:51.008Z,17.22
2022-08-18T11:24:57.030Z,18.68
2022-08-18T11:30:00.577Z,18.28
2022-08-18T11:35:06.166Z,17.97
2022-08-18T11:41:02.420Z,18.28
2022-08-18T11:45:56.989Z,16.83
2022-08-18T11:51:03.545Z,17.17
2022-08-18T11:56:18.990Z,15.44
2022-08-18T12:01:51.193Z,14.89
2022-08-18T12:07:04.515Z,15.82
2022-08-18T12:12:08.654Z,15.95
2022-08-18T12:17:13.171Z,14.93
2022-08-18T12:22:17.690Z,14.43
2022-08-18T12:27:22.081Z,13.90
2022-08-18T12:32:49.597Z,13.08
2022-08-18T12:38:13.416Z,14.30
2022-08-18T12:43:11.661Z,14.95
2022-08-18T12:48:10.982Z,15.57
2022-08-18T12:53:12.289Z,15.47
2022-08-18T12:58:13.217Z,15.03
2022-08-18T13:03:12.259Z,14.35
2022-08-18T13:08:30.780Z,14.79
2022-08-18T13:14:32.497Z,14.88
2022-08-18T13:19:33.475Z,15.46
2022-08-18T13:24:34.438Z,15.56
2022-08-18T13:29:34.111Z,16.40
2022-08-18T13:34:38.233Z,16.70
2022-08-18T13:39:54.482Z,18.01
2022-08-18T13:45:22.721Z,19.64
2022-08-18T13:50:29.741Z,20.94
2022-08-18T13:55:30.308Z,22.71
2022-08-18T14:00:31.232Z,25.32
2022-08-18T14:05:36.575Z,25.35
2022-08-18T14:10:52.675Z,26.54
2022-08-18T14:15:54.967Z,26.90
2022-08-18T14:21:14.507Z,26.92
2022-08-18T14:26:31.812Z,26.98
2022-08-18T14:31:30.805Z,27.03
2022-08-18T14:36:34.777Z,27.11
2022-08-18T14:41:35.739Z,26.82
2022-08-18T14:46:40.941Z,27.41
2022-08-18T14:51:43.318Z,27.41
2022-08-18T14:56:42.333Z,27.78
2022-08-18T15:01:43.589Z,27.66
2022-08-18T15:06:56.442Z,26.54
2022-08-18T15:11:59.958Z,26.24
2022-08-18T15:17:00.057Z,26.62
2022-08-18T15:22:18.129Z,26.17
2022-08-18T15:27:19.465Z,26.55
2022-08-18T15:32:19.357Z,26.70
2022-08-18T15:37:24.209Z,26.06
2022-08-18T15:42:23.879Z,24.48
2022-08-18T15:47:25.126Z,25.47
2022-08-18T15:52:26.642Z,25.36
2022-08-18T15:57:39.042Z,25.05
2022-08-18T16:02:39.999Z,25.86
2022-08-18T16:07:45.045Z,26.71
2022-08-18T16:12:46.193Z,27.61
2022-08-18T16:17:47.622Z,28.52
2022-08-18T16:22:53.144Z,28.79
2022-08-18T16:27:55.061Z,29.37
2022-08-18T16:32:55.166Z,29.59
2022-08-18T16:37:58.169Z,30.01
2022-08-18T16:42:58.211Z,29.94
2022-08-18T16:47:57.913Z,29.95
2022-08-18T16:52:59.382Z,31.01
2022-08-18T16:58:16.347Z,31.54
2022-08-18T17:03:34.243Z,31.58
2022-08-18T17:08:36.264Z,31.73
2022-08-18T17:13:37.902Z,32.34
2022-08-18T17:18:39.486Z,32.69
2022-08-18T17:23:42.568Z,32.76
2022-08-18T17:28:52.568Z,32.54
2022-08-18T17:33:55.038Z,33.36
2022-08-18T17:39:00.394Z,33.86
2022-08-18T17:44:03.039Z,33.84
2022-08-18T17:49:13.924Z,34.76
2022-08-18T17:54:24.091Z,35.53
2022-08-18T17:59:45.495Z,36.16
2022-08-18T18:04:49.301Z,36.23
2022-08-18T18:09:56.611Z,37.31
2022-08-18T18:14:56.681Z,36.87
2022-08-18T18:20:00.150Z,37.05
2022-08-18T18:25:07.573Z,37.27
2022-08-18T18:30:13.923Z,37.51
2022-08-18T18:35:17.725Z,37.59
2022-08-18T18:40:25.886Z,37.04
2022-08-18T18:45:28.818Z,36.66
2022-08-18T18:50:34.218Z,36.70
2022-08-18T18:55:47.179Z,37.27
2022-08-18T19:00:55.743Z,36.79
2022-08-18T19:06:14.115Z,36.53
2022-08-18T19:11:22.091Z,36.90
2022-08-18T19:16:29.345Z,36.86
2022-08-18T19:22:01.761Z,37.41
2022-08-18T19:26:53.774Z,36.97
2022-08-18T19:32:02.768Z,37.17
2022-08-18T19:37:08.246Z,37.52
2022-08-18T19:42:17.803Z,36.98
2022-08-18T19:47:23.246Z,37.21
2022-08-18T19:52:47.229Z,37.69
2022-08-18T19:58:03.217Z,37.95
2022-08-18T20:03:33.782Z,38.52
2022-08-18T20:09:03.930Z,38.98
2022-08-18T20:14:05.409Z,38.82
2022-08-18T20:19:26.238Z,39.04
2022-08-18T20:24:41.830Z,41.58
2022-08-18T20:29:47.809Z,44.51
2022-08-18T20:34:51.079Z,44.47
2022-08-18T20:39:54.757Z,47.17
2022-08-18T20:44:59.300Z,48.94
2022-08-18T20:50:14.152Z,49.98
2022-08-18T20:55:21.609Z,50.63
2022-08-18T21:00:27.426Z,50.49
2022-08-18T21:05:29.346Z,51.12
2022-08-18T21:10:30.004Z,51.40
2022-08-18T21:15:35.650Z,51.91
2022-08-18T21:20:35.668Z,51.95
2022-08-18T21:25:34.532Z,51.45
2022-08-18T21:30:35.038Z,51.38
2022-08-18T21:35:38.189Z,51.12
2022-08-18T21:40:40.020Z,51.59
2022-08-18T21:45:47.927Z,51.98
2022-08-18T21:50:52.589Z,52.05
2022-08-18T21:55:52.539Z,50.70
2022-08-18T22:01:13.911Z,50.37
2022-08-18T22:06:21.458Z,50.16
2022-08-18T22:11:59.856Z,50.04
2022-08-18T22:17:28.840Z,50.15
2022-08-18T22:22:49.518Z,49.16
2022-08-18T22:27:51.169Z,49.12
2022-08-18T22:32:51.634Z,48.69
2022-08-18T22:37:50.983Z,48.43
2022-08-18T22:42:50.198Z,48.71
2022-08-18T22:47:49.531Z,48.63
2022-08-18T22:52:50.858Z,48.24
2022-08-18T22:57:49.958Z,47.83
2022-08-18T23:02:49.110Z,47.21
2022-08-18T23:07:49.952Z,47.54
2022-08-18T23:12:49.978Z,46.96
2022-08-18T23:17:49.026Z,46.62
2022-08-18T23:22:49.870Z,46.68
2022-08-18T23:27:48.903Z,46.94
2022-08-18T23:32:48.110Z,46.93
2022-08-18T23:37:47.661Z,46.45
2022-08-18T23:42:51.631Z,47.24
2022-08-18T23:47:51.089Z,46.89
2022-08-18T23:52:56.559Z,46.73
2022-08-18T23:57:57.101Z,46.67
